sensor_id;sensor_type;location;lat;lon;timestamp;P1;durP1;ratioP1;P2;durP2;ratioP2
8665;SDS011;4370;48.916;8.380;2023-04-07T00:01:31;5.03;;;3.80;;
8665;SDS011;4370;48.916;8.380;2023-04-07T00:03:57;4.10;;;3.70;;
8665;SDS011;4370;48.916;8.380;2023-04-07T00:06:23;4.70;;;3.80;;
8665;SDS011;4370;48.916;8.380;2023-04-07T00:08:49;4.13;;;3.73;;
8665;SDS011;4370;48.916;8.380;2023-04-07T00:11:15;5.80;;;3.77;;
8665;SDS011;4370;48.916;8.380;2023-04-07T00:13:41;5.47;;;4.00;;
8665;SDS011;4370;48.916;8.380;2023-04-07T00:16:07;5.67;;;3.93;;
8665;SDS011;4370;48.916;8.380;2023-04-07T00:18:33;4.03;;;3.40;;
8665;SDS011;4370;48.916;8.380;2023-04-07T00:20:58;3.93;;;3.33;;
8665;SDS011;4370;48.916;8.380;2023-04-07T00:23:24;4.23;;;3.33;;
8665;SDS011;4370;48.916;8.380;2023-04-07T00:25:51;3.93;;;3.30;;
8665;SDS011;4370;48.916;8.380;2023-04-07T00:28:17;4.03;;;3.50;;
8665;SDS011;4370;48.916;8.380;2023-04-07T00:30:43;3.70;;;2.60;;
8665;SDS011;4370;48.916;8.380;2023-04-07T00:33:08;3.47;;;3.17;;
8665;SDS011;4370;48.916;8.380;2023-04-07T00:35:34;3.90;;;2.60;;
8665;SDS011;4370;48.916;8.380;2023-04-07T00:38:00;3.63;;;3.20;;
8665;SDS011;4370;48.916;8.380;2023-04-07T00:40:26;4.17;;;2.80;;
8665;SDS011;4370;48.916;8.380;2023-04-07T00:42:52;2.73;;;2.53;;
8665;SDS011;4370;48.916;8.380;2023-04-07T00:45:18;3.93;;;2.50;;
8665;SDS011;4370;48.916;8.380;2023-04-07T00:47:44;4.43;;;2.80;;
8665;SDS011;4370;48.916;8.380;2023-04-07T00:50:10;3.00;;;2.60;;
8665;SDS011;4370;48.916;8.380;2023-04-07T00:52:36;3.00;;;2.70;;
8665;SDS011;4370;48.916;8.380;2023-04-07T00:55:02;2.53;;;2.33;;
8665;SDS011;4370;48.916;8.380;2023-04-07T00:57:28;3.37;;;2.53;;
8665;SDS011;4370;48.916;8.380;2023-04-07T00:59:55;2.90;;;2.40;;
8665;SDS011;4370;48.916;8.380;2023-04-07T01:02:32;2.77;;;2.50;;
8665;SDS011;4370;48.916;8.380;2023-04-07T01:05:12;2.33;;;2.07;;
8665;SDS011;4370;48.916;8.380;2023-04-07T01:07:51;2.20;;;2.00;;
8665;SDS011;4370;48.916;8.380;2023-04-07T01:10:49;3.33;;;2.30;;
8665;SDS011;4370;48.916;8.380;2023-04-07T01:13:31;2.93;;;2.60;;
8665;SDS011;4370;48.916;8.380;2023-04-07T01:16:03;2.20;;;2.00;;
8665;SDS011;4370;48.916;8.380;2023-04-07T01:18:34;2.20;;;2.00;;
8665;SDS011;4370;48.916;8.380;2023-04-07T01:21:03;5.37;;;2.37;;
8665;SDS011;4370;48.916;8.380;2023-04-07T01:28:56;3.97;;;2.47;;
8665;SDS011;4370;48.916;8.380;2023-04-07T01:31:29;2.67;;;2.17;;
8665;SDS011;4370;48.916;8.380;2023-04-07T01:33:55;2.33;;;2.03;;
8665;SDS011;4370;48.916;8.380;2023-04-07T01:36:25;2.77;;;2.17;;
8665;SDS011;4370;48.916;8.380;2023-04-07T01:38:53;3.33;;;2.10;;
8665;SDS011;4370;48.916;8.380;2023-04-07T01:41:19;2.07;;;1.87;;
8665;SDS011;4370;48.916;8.380;2023-04-07T01:43:46;2.03;;;1.83;;
8665;SDS011;4370;48.916;8.380;2023-04-07T01:46:13;2.73;;;2.27;;
8665;SDS011;4370;48.916;8.380;2023-04-07T01:48:39;2.70;;;2.37;;
8665;SDS011;4370;48.916;8.380;2023-04-07T01:51:06;3.23;;;2.00;;
8665;SDS011;4370;48.916;8.380;2023-04-07T01:53:33;2.77;;;2.17;;
8665;SDS011;4370;48.916;8.380;2023-04-07T01:56:01;2.60;;;2.27;;
8665;SDS011;4370;48.916;8.380;2023-04-07T01:58:28;4.40;;;2.60;;
8665;SDS011;4370;48.916;8.380;2023-04-07T02:00:53;2.93;;;1.97;;
8665;SDS011;4370;48.916;8.380;2023-04-07T02:03:22;2.77;;;2.40;;
8665;SDS011;4370;48.916;8.380;2023-04-07T02:05:49;3.13;;;2.33;;
8665;SDS011;4370;48.916;8.380;2023-04-07T02:08:18;2.33;;;2.10;;
8665;SDS011;4370;48.916;8.380;2023-04-07T02:10:46;2.80;;;2.30;;
8665;SDS011;4370;48.916;8.380;2023-04-07T02:13:15;2.30;;;2.10;;
8665;SDS011;4370;48.916;8.380;2023-04-07T02:15:43;3.97;;;2.37;;
8665;SDS011;4370;48.916;8.380;2023-04-07T02:18:09;1.97;;;1.80;;
8665;SDS011;4370;48.916;8.380;2023-04-07T02:20:37;2.30;;;2.10;;
8665;SDS011;4370;48.916;8.380;2023-04-07T02:23:06;2.40;;;2.20;;
8665;SDS011;4370;48.916;8.380;2023-04-07T02:25:32;2.63;;;2.20;;
8665;SDS011;4370;48.916;8.380;2023-04-07T02:27:58;2.50;;;1.93;;
8665;SDS011;4370;48.916;8.380;2023-04-07T02:30:25;3.33;;;2.57;;
8665;SDS011;4370;48.916;8.380;2023-04-07T02:32:52;2.57;;;2.30;;
8665;SDS011;4370;48.916;8.380;2023-04-07T02:35:18;2.67;;;2.43;;
8665;SDS011;4370;48.916;8.380;2023-04-07T02:37:44;2.47;;;2.17;;
8665;SDS011;4370;48.916;8.380;2023-04-07T02:40:10;2.17;;;1.80;;
8665;SDS011;4370;48.916;8.380;2023-04-07T02:42:36;2.30;;;2.10;;
8665;SDS011;4370;48.916;8.380;2023-04-07T02:45:03;4.87;;;2.30;;
8665;SDS011;4370;48.916;8.380;2023-04-07T02:47:30;3.23;;;2.03;;
8665;SDS011;4370;48.916;8.380;2023-04-07T02:49:55;2.50;;;2.30;;
8665;SDS011;4370;48.916;8.380;2023-04-07T02:52:21;1.93;;;1.83;;
8665;SDS011;4370;48.916;8.380;2023-04-07T02:54:47;2.00;;;1.80;;
8665;SDS011;4370;48.916;8.380;2023-04-07T02:57:13;4.50;;;2.77;;
8665;SDS011;4370;48.916;8.380;2023-04-07T02:59:39;2.30;;;2.10;;
8665;SDS011;4370;48.916;8.380;2023-04-07T03:02:05;2.20;;;2.00;;
8665;SDS011;4370;48.916;8.380;2023-04-07T03:04:31;2.23;;;2.00;;
8665;SDS011;4370;48.916;8.380;2023-04-07T03:06:57;2.50;;;1.97;;
8665;SDS011;4370;48.916;8.380;2023-04-07T03:09:23;3.13;;;2.23;;
8665;SDS011;4370;48.916;8.380;2023-04-07T03:11:49;3.27;;;2.40;;
8665;SDS011;4370;48.916;8.380;2023-04-07T03:14:15;2.87;;;2.27;;
8665;SDS011;4370;48.916;8.380;2023-04-07T03:16:41;3.20;;;2.90;;
8665;SDS011;4370;48.916;8.380;2023-04-07T03:19:07;2.47;;;2.03;;
8665;SDS011;4370;48.916;8.380;2023-04-07T03:21:33;2.90;;;2.30;;
8665;SDS011;4370;48.916;8.380;2023-04-07T03:23:59;2.83;;;2.20;;
8665;SDS011;4370;48.916;8.380;2023-04-07T03:26:25;2.90;;;2.20;;
8665;SDS011;4370;48.916;8.380;2023-04-07T03:28:51;2.77;;;2.20;;
8665;SDS011;4370;48.916;8.380;2023-04-07T03:31:17;2.53;;;2.13;;
8665;SDS011;4370;48.916;8.380;2023-04-07T03:33:43;2.30;;;2.10;;
8665;SDS011;4370;48.916;8.380;2023-04-07T03:36:08;2.47;;;1.90;;
8665;SDS011;4370;48.916;8.380;2023-04-07T03:38:34;3.83;;;2.77;;
8665;SDS011;4370;48.916;8.380;2023-04-07T03:41:00;5.50;;;3.50;;
8665;SDS011;4370;48.916;8.380;2023-04-07T03:43:26;4.60;;;3.30;;
8665;SDS011;4370;48.916;8.380;2023-04-07T03:45:52;5.47;;;4.30;;
8665;SDS011;4370;48.916;8.380;2023-04-07T03:48:18;4.80;;;3.50;;
8665;SDS011;4370;48.916;8.380;2023-04-07T03:50:45;3.63;;;2.87;;
8665;SDS011;4370;48.916;8.380;2023-04-07T03:53:11;4.10;;;3.13;;
8665;SDS011;4370;48.916;8.380;2023-04-07T03:55:40;3.20;;;2.90;;
8665;SDS011;4370;48.916;8.380;2023-04-07T03:58:07;4.40;;;3.17;;
8665;SDS011;4370;48.916;8.380;2023-04-07T04:00:33;3.27;;;2.97;;
8665;SDS011;4370;48.916;8.380;2023-04-07T04:02:59;4.87;;;3.10;;
8665;SDS011;4370;48.916;8.380;2023-04-07T04:05:25;3.10;;;2.80;;
8665;SDS011;4370;48.916;8.380;2023-04-07T04:07:51;3.53;;;3.00;;
8665;SDS011;4370;48.916;8.380;2023-04-07T04:10:18;4.03;;;3.47;;
8665;SDS011;4370;48.916;8.380;2023-04-07T04:12:45;4.20;;;3.00;;
8665;SDS011;4370;48.916;8.380;2023-04-07T04:15:11;6.73;;;3.87;;
8665;SDS011;4370;48.916;8.380;2023-04-07T04:17:37;3.77;;;3.30;;
8665;SDS011;4370;48.916;8.380;2023-04-07T04:20:03;4.53;;;3.93;;
8665;SDS011;4370;48.916;8.380;2023-04-07T04:22:29;3.80;;;2.83;;
8665;SDS011;4370;48.916;8.380;2023-04-07T04:24:55;3.67;;;3.00;;
8665;SDS011;4370;48.916;8.380;2023-04-07T04:27:21;2.90;;;2.60;;
8665;SDS011;4370;48.916;8.380;2023-04-07T04:29:47;3.63;;;3.03;;
8665;SDS011;4370;48.916;8.380;2023-04-07T04:32:13;3.37;;;2.70;;
8665;SDS011;4370;48.916;8.380;2023-04-07T04:34:39;4.73;;;3.03;;
8665;SDS011;4370;48.916;8.380;2023-04-07T04:37:06;3.83;;;3.40;;
8665;SDS011;4370;48.916;8.380;2023-04-07T04:39:32;6.50;;;3.30;;
8665;SDS011;4370;48.916;8.380;2023-04-07T04:41:57;3.27;;;2.97;;
8665;SDS011;4370;48.916;8.380;2023-04-07T04:44:23;2.80;;;2.60;;
8665;SDS011;4370;48.916;8.380;2023-04-07T04:46:50;2.60;;;2.40;;
8665;SDS011;4370;48.916;8.380;2023-04-07T04:49:16;3.40;;;3.00;;
8665;SDS011;4370;48.916;8.380;2023-04-07T04:51:43;3.27;;;2.73;;
8665;SDS011;4370;48.916;8.380;2023-04-07T04:54:09;3.00;;;2.70;;
8665;SDS011;4370;48.916;8.380;2023-04-07T04:56:34;3.13;;;2.47;;
8665;SDS011;4370;48.916;8.380;2023-04-07T04:59:01;5.43;;;2.90;;
8665;SDS011;4370;48.916;8.380;2023-04-07T05:01:27;2.60;;;2.40;;
8665;SDS011;4370;48.916;8.380;2023-04-07T05:03:52;2.90;;;2.60;;
8665;SDS011;4370;48.916;8.380;2023-04-07T05:06:18;3.27;;;2.20;;
8665;SDS011;4370;48.916;8.380;2023-04-07T05:08:45;2.50;;;2.30;;
8665;SDS011;4370;48.916;8.380;2023-04-07T05:11:11;2.20;;;2.00;;
8665;SDS011;4370;48.916;8.380;2023-04-07T05:13:37;2.87;;;2.50;;
8665;SDS011;4370;48.916;8.380;2023-04-07T05:16:03;2.67;;;2.47;;
8665;SDS011;4370;48.916;8.380;2023-04-07T05:18:30;3.07;;;2.70;;
8665;SDS011;4370;48.916;8.380;2023-04-07T05:20:56;4.20;;;3.03;;
8665;SDS011;4370;48.916;8.380;2023-04-07T05:23:21;3.33;;;2.70;;
8665;SDS011;4370;48.916;8.380;2023-04-07T05:25:47;2.60;;;2.27;;
8665;SDS011;4370;48.916;8.380;2023-04-07T05:28:13;3.07;;;2.60;;
8665;SDS011;4370;48.916;8.380;2023-04-07T05:30:39;4.30;;;2.60;;
8665;SDS011;4370;48.916;8.380;2023-04-07T05:33:05;3.27;;;2.67;;
8665;SDS011;4370;48.916;8.380;2023-04-07T05:35:31;3.10;;;2.70;;
8665;SDS011;4370;48.916;8.380;2023-04-07T05:37:57;3.50;;;2.60;;
8665;SDS011;4370;48.916;8.380;2023-04-07T05:40:23;3.13;;;2.80;;
8665;SDS011;4370;48.916;8.380;2023-04-07T05:42:49;5.03;;;2.83;;
8665;SDS011;4370;48.916;8.380;2023-04-07T05:45:15;3.97;;;3.23;;
8665;SDS011;4370;48.916;8.380;2023-04-07T05:47:41;3.57;;;3.27;;
8665;SDS011;4370;48.916;8.380;2023-04-07T05:50:07;3.80;;;3.23;;
8665;SDS011;4370;48.916;8.380;2023-04-07T05:52:35;4.27;;;3.77;;
8665;SDS011;4370;48.916;8.380;2023-04-07T05:55:01;5.43;;;4.20;;
8665;SDS011;4370;48.916;8.380;2023-04-07T05:57:26;8.50;;;4.40;;
8665;SDS011;4370;48.916;8.380;2023-04-07T05:59:53;7.23;;;4.57;;
8665;SDS011;4370;48.916;8.380;2023-04-07T06:02:19;8.17;;;4.87;;
8665;SDS011;4370;48.916;8.380;2023-04-07T06:04:45;5.87;;;4.30;;
8665;SDS011;4370;48.916;8.380;2023-04-07T06:07:11;5.13;;;4.17;;
8665;SDS011;4370;48.916;8.380;2023-04-07T06:09:37;5.20;;;3.93;;
8665;SDS011;4370;48.916;8.380;2023-04-07T06:12:03;4.33;;;3.93;;
8665;SDS011;4370;48.916;8.380;2023-04-07T06:14:30;4.77;;;3.90;;
8665;SDS011;4370;48.916;8.380;2023-04-07T06:16:57;6.10;;;4.17;;
8665;SDS011;4370;48.916;8.380;2023-04-07T06:19:23;5.17;;;3.60;;
8665;SDS011;4370;48.916;8.380;2023-04-07T06:21:51;4.37;;;3.70;;
8665;SDS011;4370;48.916;8.380;2023-04-07T06:24:17;5.20;;;3.77;;
8665;SDS011;4370;48.916;8.380;2023-04-07T06:26:43;5.30;;;3.33;;
8665;SDS011;4370;48.916;8.380;2023-04-07T06:29:10;4.07;;;2.80;;
8665;SDS011;4370;48.916;8.380;2023-04-07T06:31:36;4.23;;;3.03;;
8665;SDS011;4370;48.916;8.380;2023-04-07T06:34:02;5.03;;;3.20;;
8665;SDS011;4370;48.916;8.380;2023-04-07T06:36:28;3.83;;;2.60;;
8665;SDS011;4370;48.916;8.380;2023-04-07T06:38:54;4.67;;;2.90;;
8665;SDS011;4370;48.916;8.380;2023-04-07T06:41:20;3.77;;;3.27;;
8665;SDS011;4370;48.916;8.380;2023-04-07T06:43:47;5.60;;;3.60;;
8665;SDS011;4370;48.916;8.380;2023-04-07T06:46:13;6.30;;;4.40;;
8665;SDS011;4370;48.916;8.380;2023-04-07T06:48:39;6.20;;;3.67;;
8665;SDS011;4370;48.916;8.380;2023-04-07T06:51:05;5.30;;;4.00;;
8665;SDS011;4370;48.916;8.380;2023-04-07T06:53:31;5.93;;;3.83;;
8665;SDS011;4370;48.916;8.380;2023-04-07T06:56:04;6.47;;;3.37;;
8665;SDS011;4370;48.916;8.380;2023-04-07T06:58:30;8.67;;;4.10;;
8665;SDS011;4370;48.916;8.380;2023-04-07T07:00:56;4.70;;;3.50;;
8665;SDS011;4370;48.916;8.380;2023-04-07T07:03:22;4.27;;;2.90;;
8665;SDS011;4370;48.916;8.380;2023-04-07T07:05:51;4.07;;;3.03;;
8665;SDS011;4370;48.916;8.380;2023-04-07T07:08:17;4.57;;;2.77;;
8665;SDS011;4370;48.916;8.380;2023-04-07T07:10:43;4.10;;;2.80;;
8665;SDS011;4370;48.916;8.380;2023-04-07T07:13:09;4.17;;;2.43;;
8665;SDS011;4370;48.916;8.380;2023-04-07T07:15:35;3.30;;;2.70;;
8665;SDS011;4370;48.916;8.380;2023-04-07T07:18:01;4.30;;;2.60;;
8665;SDS011;4370;48.916;8.380;2023-04-07T07:20:27;4.67;;;2.57;;
8665;SDS011;4370;48.916;8.380;2023-04-07T07:22:52;5.97;;;2.80;;
8665;SDS011;4370;48.916;8.380;2023-04-07T07:25:19;4.40;;;2.50;;
8665;SDS011;4370;48.916;8.380;2023-04-07T07:27:45;2.90;;;2.25;;
8665;SDS011;4370;48.916;8.380;2023-04-07T07:30:11;3.78;;;2.50;;
8665;SDS011;4370;48.916;8.380;2023-04-07T07:32:36;5.00;;;2.95;;
8665;SDS011;4370;48.916;8.380;2023-04-07T07:35:02;3.20;;;2.30;;
8665;SDS011;4370;48.916;8.380;2023-04-07T07:37:28;3.15;;;2.72;;
8665;SDS011;4370;48.916;8.380;2023-04-07T07:39:54;4.47;;;2.55;;
8665;SDS011;4370;48.916;8.380;2023-04-07T07:42:20;3.38;;;2.47;;
8665;SDS011;4370;48.916;8.380;2023-04-07T07:44:46;3.55;;;2.47;;
8665;SDS011;4370;48.916;8.380;2023-04-07T07:47:12;3.63;;;2.53;;
8665;SDS011;4370;48.916;8.380;2023-04-07T07:49:38;4.93;;;2.78;;
8665;SDS011;4370;48.916;8.380;2023-04-07T07:52:05;4.87;;;2.80;;
8665;SDS011;4370;48.916;8.380;2023-04-07T07:54:31;3.10;;;2.80;;
8665;SDS011;4370;48.916;8.380;2023-04-07T07:56:57;4.37;;;2.87;;
8665;SDS011;4370;48.916;8.380;2023-04-07T07:59:23;5.00;;;2.73;;
8665;SDS011;4370;48.916;8.380;2023-04-07T08:01:49;4.70;;;2.97;;
8665;SDS011;4370;48.916;8.380;2023-04-07T08:04:15;4.17;;;2.67;;
8665;SDS011;4370;48.916;8.380;2023-04-07T08:06:41;3.70;;;2.83;;
8665;SDS011;4370;48.916;8.380;2023-04-07T08:09:07;3.53;;;2.97;;
8665;SDS011;4370;48.916;8.380;2023-04-07T08:11:33;5.33;;;3.20;;
8665;SDS011;4370;48.916;8.380;2023-04-07T08:13:59;6.07;;;3.63;;
8665;SDS011;4370;48.916;8.380;2023-04-07T08:16:25;4.67;;;3.73;;
8665;SDS011;4370;48.916;8.380;2023-04-07T08:18:51;4.97;;;3.50;;
8665;SDS011;4370;48.916;8.380;2023-04-07T08:21:17;5.07;;;3.70;;
8665;SDS011;4370;48.916;8.380;2023-04-07T08:23:44;7.80;;;3.80;;
8665;SDS011;4370;48.916;8.380;2023-04-07T08:26:10;5.33;;;3.63;;
8665;SDS011;4370;48.916;8.380;2023-04-07T08:28:36;8.03;;;3.27;;
8665;SDS011;4370;48.916;8.380;2023-04-07T08:31:03;5.40;;;3.30;;
8665;SDS011;4370;48.916;8.380;2023-04-07T08:33:29;7.90;;;3.83;;
8665;SDS011;4370;48.916;8.380;2023-04-07T08:35:55;5.87;;;3.47;;
8665;SDS011;4370;48.916;8.380;2023-04-07T08:38:21;5.07;;;3.50;;
8665;SDS011;4370;48.916;8.380;2023-04-07T08:40:48;4.93;;;3.33;;
8665;SDS011;4370;48.916;8.380;2023-04-07T08:43:21;5.20;;;3.00;;
8665;SDS011;4370;48.916;8.380;2023-04-07T08:45:48;5.53;;;3.73;;
8665;SDS011;4370;48.916;8.380;2023-04-07T08:48:15;6.63;;;3.80;;
8665;SDS011;4370;48.916;8.380;2023-04-07T08:50:43;4.40;;;3.30;;
8665;SDS011;4370;48.916;8.380;2023-04-07T08:53:10;5.90;;;3.80;;
8665;SDS011;4370;48.916;8.380;2023-04-07T08:55:39;6.03;;;3.63;;
8665;SDS011;4370;48.916;8.380;2023-04-07T08:58:05;5.83;;;3.80;;
8665;SDS011;4370;48.916;8.380;2023-04-07T09:00:36;5.37;;;3.40;;
8665;SDS011;4370;48.916;8.380;2023-04-07T09:03:02;4.10;;;3.50;;
8665;SDS011;4370;48.916;8.380;2023-04-07T09:05:28;7.03;;;3.87;;
8665;SDS011;4370;48.916;8.380;2023-04-07T09:07:55;5.20;;;4.03;;
8665;SDS011;4370;48.916;8.380;2023-04-07T09:10:21;7.27;;;3.80;;
8665;SDS011;4370;48.916;8.380;2023-04-07T09:12:46;6.60;;;3.70;;
8665;SDS011;4370;48.916;8.380;2023-04-07T09:15:12;3.67;;;3.00;;
8665;SDS011;4370;48.916;8.380;2023-04-07T09:17:38;4.83;;;3.50;;
8665;SDS011;4370;48.916;8.380;2023-04-07T09:20:04;4.40;;;3.93;;
8665;SDS011;4370;48.916;8.380;2023-04-07T09:22:37;6.27;;;4.53;;
8665;SDS011;4370;48.916;8.380;2023-04-07T09:25:18;5.43;;;3.97;;
8665;SDS011;4370;48.916;8.380;2023-04-07T09:28:08;5.60;;;3.90;;
8665;SDS011;4370;48.916;8.380;2023-04-07T09:30:33;5.57;;;4.20;;
8665;SDS011;4370;48.916;8.380;2023-04-07T09:33:00;4.10;;;3.70;;
8665;SDS011;4370;48.916;8.380;2023-04-07T09:35:26;4.40;;;3.20;;
8665;SDS011;4370;48.916;8.380;2023-04-07T09:38:05;6.53;;;4.50;;
8665;SDS011;4370;48.916;8.380;2023-04-07T09:40:32;7.13;;;4.60;;
8665;SDS011;4370;48.916;8.380;2023-04-07T09:43:01;5.20;;;3.60;;
8665;SDS011;4370;48.916;8.380;2023-04-07T09:45:28;5.03;;;4.13;;
8665;SDS011;4370;48.916;8.380;2023-04-07T09:48:05;6.90;;;4.43;;
8665;SDS011;4370;48.916;8.380;2023-04-07T09:50:33;4.40;;;3.67;;
8665;SDS011;4370;48.916;8.380;2023-04-07T09:53:00;4.90;;;3.87;;
8665;SDS011;4370;48.916;8.380;2023-04-07T09:55:28;5.13;;;3.90;;
8665;SDS011;4370;48.916;8.380;2023-04-07T09:57:54;8.63;;;3.93;;
8665;SDS011;4370;48.916;8.380;2023-04-07T10:00:21;10.10;;;4.10;;
8665;SDS011;4370;48.916;8.380;2023-04-07T10:02:47;5.87;;;4.10;;
8665;SDS011;4370;48.916;8.380;2023-04-07T10:05:14;6.23;;;4.27;;
8665;SDS011;4370;48.916;8.380;2023-04-07T10:07:40;4.90;;;3.43;;
8665;SDS011;4370;48.916;8.380;2023-04-07T10:10:07;4.87;;;3.60;;
8665;SDS011;4370;48.916;8.380;2023-04-07T10:12:33;6.43;;;3.63;;
8665;SDS011;4370;48.916;8.380;2023-04-07T10:14:59;7.00;;;4.40;;
8665;SDS011;4370;48.916;8.380;2023-04-07T10:17:28;7.53;;;3.90;;
8665;SDS011;4370;48.916;8.380;2023-04-07T10:19:57;7.70;;;4.50;;
8665;SDS011;4370;48.916;8.380;2023-04-07T10:22:23;4.37;;;3.90;;
8665;SDS011;4370;48.916;8.380;2023-04-07T10:25:01;7.87;;;3.93;;
8665;SDS011;4370;48.916;8.380;2023-04-07T10:27:42;4.67;;;3.50;;
8665;SDS011;4370;48.916;8.380;2023-04-07T10:30:24;6.30;;;4.23;;
8665;SDS011;4370;48.916;8.380;2023-04-07T10:32:54;7.73;;;3.30;;
8665;SDS011;4370;48.916;8.380;2023-04-07T10:35:21;5.13;;;3.40;;
8665;SDS011;4370;48.916;8.380;2023-04-07T10:40:31;5.00;;;3.00;;
8665;SDS011;4370;48.916;8.380;2023-04-07T10:42:57;6.37;;;3.43;;
8665;SDS011;4370;48.916;8.380;2023-04-07T10:45:50;3.93;;;3.10;;
8665;SDS011;4370;48.916;8.380;2023-04-07T10:48:17;4.47;;;2.57;;
8665;SDS011;4370;48.916;8.380;2023-04-07T10:50:44;5.80;;;3.20;;
8665;SDS011;4370;48.916;8.380;2023-04-07T10:53:11;4.93;;;3.00;;
8665;SDS011;4370;48.916;8.380;2023-04-07T10:55:42;4.87;;;3.10;;
8665;SDS011;4370;48.916;8.380;2023-04-07T11:03:34;4.57;;;2.80;;
8665;SDS011;4370;48.916;8.380;2023-04-07T11:06:04;5.07;;;2.80;;
8665;SDS011;4370;48.916;8.380;2023-04-07T11:08:40;6.13;;;2.60;;
8665;SDS011;4370;48.916;8.380;2023-04-07T11:11:07;5.23;;;3.13;;
8665;SDS011;4370;48.916;8.380;2023-04-07T11:16:07;4.53;;;2.77;;
8665;SDS011;4370;48.916;8.380;2023-04-07T11:18:34;4.10;;;2.57;;
8665;SDS011;4370;48.916;8.380;2023-04-07T11:21:00;4.40;;;2.43;;
8665;SDS011;4370;48.916;8.380;2023-04-07T11:23:27;6.40;;;2.90;;
8665;SDS011;4370;48.916;8.380;2023-04-07T11:26:02;4.00;;;2.27;;
8665;SDS011;4370;48.916;8.380;2023-04-07T11:28:28;4.47;;;2.70;;
8665;SDS011;4370;48.916;8.380;2023-04-07T11:30:56;4.83;;;2.63;;
8665;SDS011;4370;48.916;8.380;2023-04-07T11:33:24;4.00;;;2.47;;
8665;SDS011;4370;48.916;8.380;2023-04-07T11:35:53;7.67;;;3.33;;
8665;SDS011;4370;48.916;8.380;2023-04-07T11:38:20;5.93;;;3.07;;
8665;SDS011;4370;48.916;8.380;2023-04-07T11:40:46;5.87;;;2.53;;
8665;SDS011;4370;48.916;8.380;2023-04-07T11:43:19;3.83;;;2.60;;
8665;SDS011;4370;48.916;8.380;2023-04-07T11:46:08;4.50;;;2.50;;
8665;SDS011;4370;48.916;8.380;2023-04-07T11:48:37;6.87;;;2.73;;
8665;SDS011;4370;48.916;8.380;2023-04-07T11:51:04;5.67;;;2.23;;
8665;SDS011;4370;48.916;8.380;2023-04-07T11:53:34;3.30;;;2.10;;
8665;SDS011;4370;48.916;8.380;2023-04-07T11:56:08;4.03;;;2.30;;
8665;SDS011;4370;48.916;8.380;2023-04-07T11:58:45;5.40;;;2.33;;
8665;SDS011;4370;48.916;8.380;2023-04-07T12:01:15;5.30;;;2.40;;
8665;SDS011;4370;48.916;8.380;2023-04-07T12:06:42;5.70;;;2.63;;
8665;SDS011;4370;48.916;8.380;2023-04-07T12:11:52;4.63;;;2.60;;
8665;SDS011;4370;48.916;8.380;2023-04-07T12:14:18;4.83;;;2.60;;
8665;SDS011;4370;48.916;8.380;2023-04-07T12:16:43;5.13;;;2.40;;
8665;SDS011;4370;48.916;8.380;2023-04-07T12:19:09;5.23;;;2.40;;
8665;SDS011;4370;48.916;8.380;2023-04-07T12:21:35;4.50;;;2.40;;
8665;SDS011;4370;48.916;8.380;2023-04-07T12:24:01;5.17;;;2.50;;
8665;SDS011;4370;48.916;8.380;2023-04-07T12:26:27;6.00;;;2.70;;
8665;SDS011;4370;48.916;8.380;2023-04-07T12:28:53;5.70;;;2.50;;
8665;SDS011;4370;48.916;8.380;2023-04-07T12:31:20;8.10;;;2.40;;
8665;SDS011;4370;48.916;8.380;2023-04-07T12:33:46;5.00;;;2.20;;
8665;SDS011;4370;48.916;8.380;2023-04-07T12:36:12;7.13;;;2.93;;
8665;SDS011;4370;48.916;8.380;2023-04-07T12:38:38;5.20;;;2.40;;
8665;SDS011;4370;48.916;8.380;2023-04-07T12:41:04;4.23;;;2.43;;
8665;SDS011;4370;48.916;8.380;2023-04-07T12:43:30;4.40;;;2.47;;
8665;SDS011;4370;48.916;8.380;2023-04-07T12:45:56;4.93;;;2.30;;
8665;SDS011;4370;48.916;8.380;2023-04-07T12:48:22;6.27;;;2.13;;
8665;SDS011;4370;48.916;8.380;2023-04-07T12:50:48;3.93;;;2.40;;
8665;SDS011;4370;48.916;8.380;2023-04-07T12:53:14;3.33;;;2.60;;
8665;SDS011;4370;48.916;8.380;2023-04-07T12:55:41;6.10;;;2.73;;
8665;SDS011;4370;48.916;8.380;2023-04-07T12:58:07;5.03;;;2.90;;
8665;SDS011;4370;48.916;8.380;2023-04-07T13:00:33;4.03;;;2.63;;
8665;SDS011;4370;48.916;8.380;2023-04-07T13:02:59;6.67;;;2.70;;
8665;SDS011;4370;48.916;8.380;2023-04-07T13:05:25;4.50;;;2.73;;
8665;SDS011;4370;48.916;8.380;2023-04-07T13:07:52;6.27;;;2.10;;
8665;SDS011;4370;48.916;8.380;2023-04-07T13:10:18;3.23;;;2.10;;
8665;SDS011;4370;48.916;8.380;2023-04-07T13:12:45;4.73;;;1.90;;
8665;SDS011;4370;48.916;8.380;2023-04-07T13:15:11;4.13;;;1.80;;
8665;SDS011;4370;48.916;8.380;2023-04-07T13:17:37;4.13;;;1.67;;
8665;SDS011;4370;48.916;8.380;2023-04-07T13:20:04;4.83;;;2.03;;
8665;SDS011;4370;48.916;8.380;2023-04-07T13:22:30;2.60;;;1.60;;
8665;SDS011;4370;48.916;8.380;2023-04-07T13:24:56;4.37;;;1.80;;
8665;SDS011;4370;48.916;8.380;2023-04-07T13:27:22;3.10;;;1.90;;
8665;SDS011;4370;48.916;8.380;2023-04-07T13:29:48;5.67;;;2.10;;
8665;SDS011;4370;48.916;8.380;2023-04-07T13:32:14;4.23;;;1.67;;
8665;SDS011;4370;48.916;8.380;2023-04-07T13:34:40;4.67;;;2.30;;
8665;SDS011;4370;48.916;8.380;2023-04-07T13:37:08;3.77;;;2.07;;
8665;SDS011;4370;48.916;8.380;2023-04-07T13:39:34;5.00;;;2.30;;
8665;SDS011;4370;48.916;8.380;2023-04-07T13:42:00;4.33;;;2.10;;
8665;SDS011;4370;48.916;8.380;2023-04-07T13:44:26;3.80;;;2.07;;
8665;SDS011;4370;48.916;8.380;2023-04-07T13:46:52;3.43;;;2.10;;
8665;SDS011;4370;48.916;8.380;2023-04-07T13:49:19;4.57;;;2.23;;
8665;SDS011;4370;48.916;8.380;2023-04-07T13:51:46;3.13;;;1.87;;
8665;SDS011;4370;48.916;8.380;2023-04-07T13:54:12;6.63;;;2.30;;
8665;SDS011;4370;48.916;8.380;2023-04-07T13:56:38;4.43;;;2.03;;
8665;SDS011;4370;48.916;8.380;2023-04-07T13:59:04;3.07;;;1.87;;
8665;SDS011;4370;48.916;8.380;2023-04-07T14:01:30;4.23;;;1.87;;
8665;SDS011;4370;48.916;8.380;2023-04-07T14:03:57;5.13;;;2.07;;
8665;SDS011;4370;48.916;8.380;2023-04-07T14:06:24;3.97;;;2.00;;
8665;SDS011;4370;48.916;8.380;2023-04-07T14:08:50;5.07;;;2.30;;
8665;SDS011;4370;48.916;8.380;2023-04-07T14:11:17;6.07;;;2.00;;
8665;SDS011;4370;48.916;8.380;2023-04-07T14:13:44;6.23;;;2.30;;
8665;SDS011;4370;48.916;8.380;2023-04-07T14:16:10;5.50;;;2.00;;
8665;SDS011;4370;48.916;8.380;2023-04-07T14:18:36;4.77;;;2.10;;
8665;SDS011;4370;48.916;8.380;2023-04-07T14:21:02;5.13;;;2.20;;
8665;SDS011;4370;48.916;8.380;2023-04-07T14:23:29;2.30;;;2.03;;
8665;SDS011;4370;48.916;8.380;2023-04-07T14:25:56;3.57;;;2.17;;
8665;SDS011;4370;48.916;8.380;2023-04-07T14:28:22;5.73;;;2.40;;
8665;SDS011;4370;48.916;8.380;2023-04-07T14:30:48;3.00;;;1.90;;
8665;SDS011;4370;48.916;8.380;2023-04-07T14:33:14;4.57;;;2.27;;
8665;SDS011;4370;48.916;8.380;2023-04-07T14:35:41;4.87;;;2.30;;
8665;SDS011;4370;48.916;8.380;2023-04-07T14:38:07;3.03;;;2.00;;
8665;SDS011;4370;48.916;8.380;2023-04-07T14:40:33;4.50;;;2.20;;
8665;SDS011;4370;48.916;8.380;2023-04-07T14:43:00;2.73;;;1.97;;
8665;SDS011;4370;48.916;8.380;2023-04-07T14:45:26;3.63;;;2.00;;
8665;SDS011;4370;48.916;8.380;2023-04-07T14:47:52;3.53;;;2.13;;
8665;SDS011;4370;48.916;8.380;2023-04-07T14:50:18;3.07;;;1.90;;
8665;SDS011;4370;48.916;8.380;2023-04-07T14:52:44;4.37;;;2.23;;
8665;SDS011;4370;48.916;8.380;2023-04-07T14:55:10;4.60;;;2.20;;
8665;SDS011;4370;48.916;8.380;2023-04-07T14:57:35;4.70;;;2.30;;
8665;SDS011;4370;48.916;8.380;2023-04-07T15:00:02;3.90;;;2.00;;
8665;SDS011;4370;48.916;8.380;2023-04-07T15:02:31;2.63;;;2.10;;
8665;SDS011;4370;48.916;8.380;2023-04-07T15:04:57;4.00;;;2.60;;
8665;SDS011;4370;48.916;8.380;2023-04-07T15:07:23;3.67;;;2.20;;
8665;SDS011;4370;48.916;8.380;2023-04-07T15:09:49;3.93;;;1.80;;
8665;SDS011;4370;48.916;8.380;2023-04-07T15:12:15;4.67;;;2.30;;
8665;SDS011;4370;48.916;8.380;2023-04-07T15:14:41;2.30;;;1.70;;
8665;SDS011;4370;48.916;8.380;2023-04-07T15:17:07;4.20;;;2.10;;
8665;SDS011;4370;48.916;8.380;2023-04-07T15:19:33;2.63;;;1.87;;
8665;SDS011;4370;48.916;8.380;2023-04-07T15:21:59;5.50;;;2.10;;
8665;SDS011;4370;48.916;8.380;2023-04-07T15:24:25;4.37;;;2.43;;
8665;SDS011;4370;48.916;8.380;2023-04-07T15:26:51;3.30;;;1.70;;
8665;SDS011;4370;48.916;8.380;2023-04-07T15:29:17;3.70;;;2.23;;
8665;SDS011;4370;48.916;8.380;2023-04-07T15:31:43;2.63;;;1.83;;
8665;SDS011;4370;48.916;8.380;2023-04-07T15:34:09;3.40;;;1.83;;
8665;SDS011;4370;48.916;8.380;2023-04-07T15:36:35;3.10;;;1.90;;